Time;durP1;ratioP1;P1;durP2;ratioP2;P2;SDS_P1;SDS_P2;PMS_P1;PMS_P2;Temp;Humidity;BMP_temperature;BMP_pressure;BME280_temperature;BME280_humidity;BME280_pressure;Samples;Min_cycle;Max_cycle;Signal;HPM_P1;HPM_P2
2021/12/06 00:02:40;;;;;;;2.90;2.35;;;2.30;99.90;;;;;;1952992;72;22208;-85
2021/12/06 00:05:32;;;;;;;2.90;2.42;;;2.40;99.90;;;;;;1915084;74;21163;-85
2021/12/06 00:08:24;;;;;;;2.70;2.50;;;2.50;99.90;;;;;;1916147;74;21118;-85
2021/12/06 00:11:16;;;;;;;4.85;2.60;;;2.50;99.90;;;;;;1917264;74;21113;-86
2021/12/06 00:14:28;;;;;;;3.12;2.83;;;2.60;99.90;;;;;;1905154;75;21027;-84
2021/12/06 00:19:58;;;;;;;4.25;3.85;;;2.60;99.90;;;;;;1940326;72;22668;-86
2021/12/06 00:22:49;;;;;;;4.95;4.40;;;2.50;99.90;;;;;;1894926;75;21098;-86
2021/12/06 00:25:41;;;;;;;5.70;5.10;;;2.60;99.90;;;;;;1888676;75;21141;-86
2021/12/06 00:31:11;;;;;;;4.92;4.40;;;2.40;99.90;;;;;;1942240;72;22139;-86
2021/12/06 00:34:06;;;;;;;5.00;4.55;;;2.40;99.90;;;;;;1893090;75;21075;-85
2021/12/06 00:37:05;;;;;;;3.95;3.30;;;2.50;99.90;;;;;;1890032;75;21102;-85
2021/12/06 00:39:59;;;;;;;7.72;3.77;;;2.60;99.90;;;;;;1894623;75;21160;-85
2021/12/06 00:43:09;;;;;;;2.08;1.75;;;2.70;99.90;;;;;;1881239;75;21095;-85
2021/12/06 00:46:00;;;;;;;1.07;0.70;;;2.70;99.90;;;;;;1898979;75;21574;-85
2021/12/06 00:48:52;;;;;;;3.10;0.70;;;3.00;99.90;;;;;;1895450;75;21169;-85
2021/12/06 00:51:43;;;;;;;2.65;1.62;;;3.30;99.90;;;;;;1887797;75;21121;-86
2021/12/06 00:54:35;;;;;;;1.85;1.45;;;3.20;99.90;;;;;;1903531;75;21088;-85
2021/12/06 01:00:07;;;;;;;1.77;1.22;;;3.00;99.90;;;;;;1963017;72;22160;-85
2021/12/06 01:03:01;;;;;;;3.98;3.45;;;3.10;99.90;;;;;;1921736;73;21103;-85
2021/12/06 01:05:52;;;;;;;5.05;4.40;;;3.00;99.90;;;;;;1917132;74;21036;-85
2021/12/06 01:08:44;;;;;;;5.70;5.05;;;2.90;99.90;;;;;;1912816;74;21113;-86
2021/12/06 01:11:54;;;;;;;5.60;5.10;;;2.80;99.90;;;;;;1905144;75;21146;-86
2021/12/06 01:14:46;;;;;;;5.40;4.90;;;2.80;99.90;;;;;;1905197;75;21099;-86
2021/12/06 01:20:21;;;;;;;5.87;5.22;;;2.80;99.90;;;;;;1929764;72;22154;-86
2021/12/06 01:23:15;;;;;;;5.33;4.83;;;2.90;99.90;;;;;;1905155;75;21223;-87
2021/12/06 01:26:25;;;;;;;6.62;5.58;;;2.80;99.90;;;;;;1907092;75;21236;-85
2021/12/06 01:29:35;;;;;;;5.20;4.40;;;2.80;99.90;;;;;;1898488;75;21121;-87
2021/12/06 01:41:21;;;;;;;6.03;5.00;;;3.00;99.90;;;;;;1883656;75;21123;-85
2021/12/06 01:44:15;;;;;;;6.17;5.00;;;3.00;99.90;;;;;;1890043;75;21205;-85
2021/12/06 01:47:35;;;;;;;4.80;4.22;;;3.00;99.90;;;;;;1899483;75;21209;-85
2021/12/06 01:50:30;;;;;;;4.33;3.92;;;3.00;99.90;;;;;;1883960;75;21071;-85
2021/12/06 01:56:00;;;;;;;5.53;4.92;;;3.10;99.90;;;;;;1944986;72;22754;-86
2021/12/06 01:58:51;;;;;;;5.60;4.87;;;3.10;99.90;;;;;;1912224;75;21138;-84
2021/12/06 02:01:43;;;;;;;8.18;6.47;;;3.00;99.90;;;;;;1905298;75;21112;-86
2021/12/06 02:04:38;;;;;;;7.17;6.28;;;3.00;99.90;;;;;;1876231;75;21084;-85
2021/12/06 02:10:35;;;;;;;8.60;7.67;;;2.90;99.90;;;;;;1959607;72;22196;-86
2021/12/06 02:13:29;;;;;;;8.73;7.83;;;2.80;99.90;;;;;;1923498;73;21210;-85
2021/12/06 02:16:30;;;;;;;9.23;8.23;;;2.80;99.90;;;;;;1950725;73;21163;-85
2021/12/06 02:19:18;;;;;;;9.73;8.63;;;2.80;99.90;;;;;;1926647;73;21110;-84
2021/12/06 02:25:07;;;;;;;11.08;9.43;;;2.80;99.90;;;;;;1933843;72;22288;-86
2021/12/06 02:27:59;;;;;;;10.65;8.88;;;2.80;99.90;;;;;;1913018;75;21226;-85
2021/12/06 02:30:50;;;;;;;11.73;9.58;;;2.80;99.90;;;;;;1896021;75;21086;-85
2021/12/06 02:33:44;;;;;;;10.13;8.78;;;2.70;99.90;;;;;;1902029;75;21116;-85
2021/12/06 02:36:54;;;;;;;11.80;9.28;;;2.70;99.90;;;;;;1887660;75;21027;-86
2021/12/06 02:42:27;;;;;;;10.90;9.38;;;2.60;99.90;;;;;;1955172;72;22118;-86
2021/12/06 02:45:22;;;;;;;11.63;9.45;;;2.60;99.90;;;;;;1911307;75;21172;-85
2021/12/06 02:48:15;;;;;;;10.72;8.68;;;2.60;99.90;;;;;;1902118;75;21063;-85
2021/12/06 02:51:08;;;;;;;10.75;8.88;;;2.70;99.90;;;;;;1906651;75;21194;-86
2021/12/06 02:54:20;;;;;;;10.75;8.53;;;2.70;99.90;;;;;;1916437;75;21141;-85
2021/12/06 02:57:21;;;;;;;9.93;8.35;;;2.70;99.90;;;;;;1906927;75;21152;-85
2021/12/06 03:00:15;;;;;;;10.58;8.53;;;2.70;99.90;;;;;;1906761;75;21095;-85
2021/12/06 03:03:07;;;;;;;12.40;9.18;;;2.70;99.90;;;;;;1903936;75;21047;-85
2021/12/06 03:05:59;;;;;;;10.53;8.48;;;2.80;99.90;;;;;;1898970;75;21079;-85
2021/12/06 03:08:58;;;;;;;11.83;9.65;;;2.70;99.90;;;;;;1895810;75;21051;-85
2021/12/06 03:11:50;;;;;;;11.78;8.83;;;2.70;99.90;;;;;;1895458;75;21094;-85
2021/12/06 03:14:44;;;;;;;10.40;8.90;;;2.70;99.90;;;;;;1916914;75;21129;-85
2021/12/06 03:20:20;;;;;;;15.05;13.18;;;2.70;99.90;;;;;;1908089;72;28120;-85
2021/12/06 03:23:12;;;;;;;12.85;10.53;;;2.90;99.90;;;;;;1904622;75;21144;-85
2021/12/06 03:26:05;;;;;;;12.30;9.78;;;3.00;99.90;;;;;;1895590;75;21102;-85
2021/12/06 03:28:58;;;;;;;13.13;9.85;;;2.90;99.90;;;;;;1901774;75;21572;-85
2021/12/06 03:32:10;;;;;;;12.88;10.00;;;2.80;99.90;;;;;;1884868;76;21121;-86
2021/12/06 03:37:44;;;;;;;13.25;10.30;;;2.70;99.90;;;;;;1942573;72;22139;-85
2021/12/06 03:40:37;;;;;;;12.13;9.98;;;2.70;99.90;;;;;;1888482;75;21133;-86
2021/12/06 03:46:08;;;;;;;11.88;9.43;;;2.70;99.90;;;;;;1941090;72;22709;-86
2021/12/06 03:49:02;;;;;;;13.83;10.32;;;2.70;99.90;;;;;;1888328;75;21106;-85
2021/12/06 03:51:54;;;;;;;14.25;10.48;;;2.60;99.90;;;;;;1885730;75;21134;-85
2021/12/06 03:57:25;;;;;;;11.63;9.35;;;2.50;99.90;;;;;;1951126;72;22209;-86
2021/12/06 04:00:18;;;;;;;12.95;10.00;;;2.50;99.90;;;;;;1904001;75;21569;-85
2021/12/06 04:03:12;;;;;;;12.00;9.80;;;2.50;99.90;;;;;;1916194;75;21118;-85
2021/12/06 04:06:07;;;;;;;13.20;10.10;;;2.50;99.90;;;;;;1899001;75;21075;-85
2021/12/06 04:09:18;;;;;;;13.28;9.60;;;2.50;99.90;;;;;;1916326;75;21141;-85
2021/12/06 04:12:12;;;;;;;10.28;8.38;;;2.50;99.90;;;;;;1915966;75;21146;-86
2021/12/06 04:15:08;;;;;;;9.30;6.92;;;2.60;99.90;;;;;;1914497;75;21151;-86
2021/12/06 04:20:39;;;;;;;7.62;6.28;;;2.70;99.90;;;;;;1943584;72;22162;-86
2021/12/06 04:23:32;;;;;;;9.50;6.20;;;2.80;99.90;;;;;;1905607;75;21115;-86
2021/12/06 04:26:25;;;;;;;7.17;6.22;;;2.80;99.90;;;;;;1883751;75;21158;-85
2021/12/06 04:29:18;;;;;;;7.95;6.40;;;2.90;99.90;;;;;;1884205;75;21059;-86
2021/12/06 04:32:29;;;;;;;7.45;6.62;;;2.90;99.90;;;;;;1873094;76;21102;-86
2021/12/06 04:35:23;;;;;;;7.30;6.05;;;2.90;99.90;;;;;;1888755;75;21207;-86
2021/12/06 04:40:54;;;;;;;6.95;6.05;;;2.90;99.90;;;;;;1955156;72;22163;-85
2021/12/06 04:46:24;;;;;;;10.95;7.62;;;3.00;99.90;;;;;;1964861;72;22252;-86
2021/12/06 04:49:16;;;;;;;9.43;7.83;;;2.90;99.90;;;;;;1925171;74;21124;-85
2021/12/06 04:52:19;;;;;;;9.20;7.37;;;2.90;99.90;;;;;;1905050;75;21083;-85
2021/12/06 04:55:15;;;;;;;9.83;7.70;;;3.00;99.90;;;;;;1857041;77;21232;-85
2021/12/06 04:58:09;;;;;;;10.93;8.05;;;2.90;99.90;;;;;;1893230;75;21180;-85
2021/12/06 05:01:03;;;;;;;10.85;8.50;;;2.70;99.90;;;;;;1906640;75;21157;-85
2021/12/06 05:03:57;;;;;;;11.22;9.08;;;2.60;99.90;;;;;;1905528;75;21055;-85
2021/12/06 05:06:52;;;;;;;11.35;8.88;;;2.50;99.90;;;;;;1906578;75;21188;-84
2021/12/06 05:09:45;;;;;;;12.70;9.25;;;2.50;99.90;;;;;;1902984;75;21191;-85
2021/12/06 05:12:37;;;;;;;13.43;9.65;;;2.40;99.90;;;;;;1901166;75;21141;-85
2021/12/06 05:15:28;;;;;;;12.28;8.68;;;2.40;99.90;;;;;;1908135;75;21184;-86
2021/12/06 05:18:20;;;;;;;11.63;8.78;;;2.40;99.90;;;;;;1908360;75;21113;-85
2021/12/06 05:21:12;;;;;;;12.20;9.35;;;2.40;99.90;;;;;;1893970;75;21106;-85
2021/12/06 05:26:44;;;;;;;11.97;9.25;;;2.30;99.90;;;;;;1942873;72;22181;-85
2021/12/06 05:29:37;;;;;;;12.93;9.83;;;2.30;99.90;;;;;;1940864;73;21117;-86
2021/12/06 05:35:10;;;;;;;10.85;8.60;;;2.20;99.90;;;;;;1964696;72;22632;-86
2021/12/06 05:38:03;;;;;;;10.28;7.55;;;2.20;99.90;;;;;;1905164;74;21076;-86
2021/12/06 05:40:56;;;;;;;9.13;6.75;;;2.30;99.90;;;;;;1905138;75;21062;-85
2021/12/06 05:46:30;;;;;;;10.45;8.08;;;2.40;99.90;;;;;;1958353;72;22127;-86
2021/12/06 05:49:21;;;;;;;8.95;7.35;;;2.30;99.90;;;;;;1905468;75;21083;-86
2021/12/06 05:52:12;;;;;;;6.35;5.37;;;2.30;99.90;;;;;;1902981;75;21499;-86
2021/12/06 05:55:04;;;;;;;9.55;6.08;;;2.30;99.90;;;;;;1855866;77;21102;-86
2021/12/06 06:00:56;;;;;;;6.72;5.42;;;2.40;99.90;;;;;;1932761;72;22200;-86
2021/12/06 06:03:50;;;;;;;5.55;4.50;;;2.50;99.90;;;;;;1898714;75;21063;-85
2021/12/06 06:06:42;;;;;;;6.03;4.90;;;2.50;99.90;;;;;;1904297;75;21063;-85
2021/12/06 06:12:19;;;;;;;7.03;5.08;;;2.60;99.90;;;;;;1965975;72;20143;-86
2021/12/06 06:15:12;;;;;;;8.05;6.20;;;2.70;99.90;;;;;;1933802;74;21047;-85
2021/12/06 06:18:05;;;;;;;9.15;5.87;;;2.70;99.90;;;;;;1915058;74;21564;-86
2021/12/06 06:20:57;;;;;;;6.42;4.62;;;2.70;99.90;;;;;;1923544;74;21055;-86
2021/12/06 06:26:48;;;;;;;7.50;5.90;;;2.50;99.90;;;;;;1942521;72;22201;-86
2021/12/06 06:29:39;;;;;;;9.53;6.28;;;2.50;99.90;;;;;;1917582;75;21110;-86
2021/12/06 06:35:10;;;;;;;7.90;6.08;;;2.70;99.90;;;;;;1951638;72;22257;-86
2021/12/06 06:40:41;;;;;;;9.53;7.22;;;2.80;99.90;;;;;;1957835;72;22167;-86
2021/12/06 06:43:35;;;;;;;9.45;7.17;;;2.80;99.90;;;;;;1893093;74;21176;-86
2021/12/06 06:46:26;;;;;;;9.58;7.45;;;2.80;99.90;;;;;;1884693;75;21052;-86
2021/12/06 06:49:19;;;;;;;10.35;7.33;;;2.90;99.90;;;;;;1890603;75;21056;-87
2021/12/06 06:55:10;;;;;;;10.65;8.30;;;2.90;99.90;;;;;;1936022;72;22182;-86
2021/12/06 07:00:47;;;;;;;12.30;9.30;;;3.00;99.90;;;;;;1947208;72;22204;-87
2021/12/06 07:03:40;;;;;;;11.20;8.50;;;2.90;99.90;;;;;;1927528;73;21067;-87
2021/12/06 07:06:32;;;;;;;13.35;9.23;;;2.90;99.90;;;;;;1939269;73;21140;-87
2021/12/06 07:09:24;;;;;;;10.72;8.15;;;2.90;99.90;;;;;;1917420;75;21627;-87
2021/12/06 07:12:40;;;;;;;9.95;7.72;;;2.90;99.90;;;;;;1920234;73;21141;-87
2021/12/06 07:15:30;;;;;;;10.75;8.20;;;2.80;99.90;;;;;;1917819;73;21112;-87
2021/12/06 07:18:22;;;;;;;9.85;7.87;;;2.80;99.90;;;;;;1917130;75;21135;-87
2021/12/06 07:21:15;;;;;;;10.53;7.97;;;2.80;99.90;;;;;;1917737;73;21050;-86
2021/12/06 07:26:47;;;;;;;10.98;7.83;;;2.80;99.90;;;;;;1932639;72;22209;-86
2021/12/06 07:29:38;;;;;;;13.72;9.30;;;2.80;99.90;;;;;;1893331;74;21154;-87
2021/12/06 07:32:30;;;;;;;10.80;8.70;;;2.80;99.90;;;;;;1915794;75;21121;-87
2021/12/06 07:35:22;;;;;;;11.63;8.98;;;2.90;99.90;;;;;;1901103;75;21160;-88
2021/12/06 07:38:34;;;;;;;12.18;8.65;;;2.90;99.90;;;;;;1901353;75;21090;-88
2021/12/06 07:41:28;;;;;;;11.22;8.63;;;2.90;99.90;;;;;;1859054;76;21065;-86
2021/12/06 07:44:21;;;;;;;10.93;8.00;;;3.00;99.90;;;;;;1895239;75;21092;-85
2021/12/06 07:49:53;;;;;;;8.90;7.15;;;3.10;99.90;;;;;;1959225;72;22166;-86
2021/12/06 07:52:47;;;;;;;9.23;6.65;;;3.10;99.90;;;;;;1922585;73;21058;-87
2021/12/06 07:55:38;;;;;;;8.70;6.67;;;3.20;99.90;;;;;;1939762;73;21178;-88
2021/12/06 07:58:29;;;;;;;8.43;6.75;;;3.20;99.90;;;;;;1939811;73;21094;-87
2021/12/06 08:01:39;;;;;;;9.60;7.33;;;3.20;99.90;;;;;;1917399;75;21156;-87
2021/12/06 08:07:10;;;;;;;8.83;6.97;;;3.30;99.90;;;;;;1936663;72;22213;-87
2021/12/06 08:10:01;;;;;;;10.23;7.45;;;3.40;99.90;;;;;;1875887;75;21184;-87
2021/12/06 08:12:53;;;;;;;9.50;7.10;;;3.40;99.90;;;;;;1884642;75;21177;-87
2021/12/06 08:15:46;;;;;;;25.20;7.35;;;3.50;99.90;;;;;;1887262;75;21152;-86
2021/12/06 08:18:56;;;;;;;10.95;7.05;;;3.50;99.90;;;;;;1891955;75;21147;-86
2021/12/06 08:21:47;;;;;;;8.25;6.87;;;3.60;99.90;;;;;;1894908;75;21110;-86
2021/12/06 08:24:39;;;;;;;9.13;6.50;;;3.60;99.90;;;;;;1902365;75;21108;-87
2021/12/06 08:30:13;;;;;;;8.63;6.83;;;3.60;99.90;;;;;;1951185;72;22130;-86
2021/12/06 08:35:48;;;;;;;11.48;9.03;;;3.70;99.90;;;;;;1952621;72;22212;-86
2021/12/06 08:41:28;;;;;;;10.32;7.60;;;3.60;99.90;;;;;;1965575;72;22123;-86
2021/12/06 08:44:20;;;;;;;9.58;7.60;;;3.50;99.90;;;;;;1912911;74;21095;-86
2021/12/06 08:47:14;;;;;;;9.03;7.22;;;3.50;99.90;;;;;;1928033;74;21051;-86
2021/12/06 08:52:51;;;;;;;10.23;8.15;;;3.40;99.90;;;;;;1963929;72;22136;-87
2021/12/06 08:55:43;;;;;;;9.78;8.00;;;3.40;99.90;;;;;;1917377;75;21208;-87
2021/12/06 08:58:35;;;;;;;11.30;8.25;;;3.40;99.90;;;;;;1925604;73;21102;-86
2021/12/06 09:01:28;;;;;;;10.53;8.28;;;3.40;99.90;;;;;;1917425;75;21062;-86
2021/12/06 09:07:19;;;;;;;11.45;8.83;;;3.40;99.90;;;;;;1956615;72;22146;-86
2021/12/06 09:10:13;;;;;;;11.40;8.75;;;3.40;99.90;;;;;;1909308;75;21066;-86
2021/12/06 09:13:05;;;;;;;11.48;8.50;;;3.40;99.90;;;;;;1908274;75;21576;-86
2021/12/06 09:18:45;;;;;;;11.70;9.35;;;3.40;99.90;;;;;;1940366;72;22258;-87
2021/12/06 09:21:39;;;;;;;11.30;8.98;;;3.40;99.90;;;;;;1910986;75;21144;-87
2021/12/06 09:27:48;;;;;;;12.03;8.88;;;3.50;99.90;;;;;;2011440;71;22146;-87
2021/12/06 09:30:40;;;;;;;12.73;9.28;;;3.60;99.90;;;;;;1953328;73;21490;-87
2021/12/06 09:36:13;;;;;;;13.05;9.73;;;3.70;99.90;;;;;;1956412;72;22740;-87
2021/12/06 09:39:09;;;;;;;14.55;12.18;;;3.80;99.90;;;;;;1895059;74;21537;-86
2021/12/06 09:42:01;;;;;;;15.28;11.55;;;3.80;99.90;;;;;;1904447;75;21152;-87
2021/12/06 09:44:53;;;;;;;13.08;10.43;;;3.90;99.90;;;;;;1914422;75;21084;-87
2021/12/06 09:50:45;;;;;;;14.38;10.58;;;4.10;99.90;;;;;;1947394;72;22289;-87
2021/12/06 09:53:41;;;;;;;13.90;10.90;;;4.10;99.90;;;;;;1907135;75;21063;-87
2021/12/06 09:56:35;;;;;;;14.45;10.70;;;4.20;99.90;;;;;;1917373;75;21118;-85
2021/12/06 10:02:07;;;;;;;12.25;10.68;;;4.30;99.90;;;;;;1949887;72;22208;-86
2021/12/06 10:04:59;;;;;;;14.83;11.05;;;4.30;99.90;;;;;;1921358;74;21103;-86
2021/12/06 10:07:50;;;;;;;14.05;10.90;;;4.40;99.90;;;;;;1920761;74;21091;-86
2021/12/06 10:10:41;;;;;;;11.77;10.27;;;4.50;99.90;;;;;;1905064;74;21169;-87
2021/12/06 10:16:31;;;;;;;13.45;10.90;;;4.50;99.90;;;;;;1943541;72;22139;-86
2021/12/06 10:19:26;;;;;;;13.15;10.78;;;4.60;99.90;;;;;;1838245;77;21579;-87
2021/12/06 10:22:21;;;;;;;11.48;9.83;;;4.60;99.90;;;;;;1879643;75;21078;-86
2021/12/06 10:25:13;;;;;;;10.75;8.78;;;4.60;99.90;;;;;;1904469;75;21056;-88
2021/12/06 10:28:28;;;;;;;8.65;7.33;;;4.70;99.90;;;;;;1895520;75;21063;-86
2021/12/06 10:31:20;;;;;;;10.25;7.80;;;4.80;99.90;;;;;;1873182;75;21048;-86
2021/12/06 10:34:13;;;;;;;9.50;7.80;;;4.80;99.90;;;;;;1895864;75;21157;-86
2021/12/06 10:37:05;;;;;;;9.20;7.62;;;5.00;99.90;;;;;;1889642;75;21056;-86
2021/12/06 10:40:00;;;;;;;8.58;7.55;;;5.20;99.90;;;;;;1904766;75;21319;-87
2021/12/06 10:45:38;;;;;;;8.33;7.37;;;5.50;99.90;;;;;;1943102;72;22111;-86
2021/12/06 10:48:31;;;;;;;9.80;8.48;;;5.50;99.90;;;;;;1902415;74;21185;-86
2021/12/06 10:51:24;;;;;;;9.43;7.60;;;5.40;99.90;;;;;;1898249;75;21106;-87
2021/12/06 10:54:27;;;;;;;10.08;7.42;;;5.40;99.90;;;;;;1895343;75;21050;-86
2021/12/06 10:57:50;;;;;;;10.45;7.70;;;5.50;99.90;;;;;;1895464;75;21103;-85
2021/12/06 11:00:46;;;;;;;9.30;7.42;;;5.50;99.90;;;;;;1895512;75;21066;-87
2021/12/06 11:03:42;;;;;;;10.43;8.03;;;5.60;99.90;;;;;;1895488;75;21183;-87
2021/12/06 11:06:41;;;;;;;9.88;7.92;;;5.60;99.90;;;;;;1895571;75;21164;-86
2021/12/06 11:09:31;;;;;;;10.67;8.33;;;5.70;99.90;;;;;;1902679;75;21102;-86
2021/12/06 11:12:26;;;;;;;8.55;7.45;;;5.70;99.90;;;;;;1897437;75;21111;-87
2021/12/06 11:15:18;;;;;;;10.75;8.68;;;5.70;99.90;;;;;;1912884;75;21065;-86
2021/12/06 11:18:09;;;;;;;8.80;7.05;;;5.80;99.90;;;;;;1913443;75;21179;-86
2021/12/06 11:21:01;;;;;;;8.93;7.97;;;5.80;99.90;;;;;;1898013;75;21140;-86
2021/12/06 11:27:05;;;;;;;9.55;8.18;;;5.80;99.90;;;;;;1957911;72;22166;-87
2021/12/06 11:30:02;;;;;;;10.60;9.15;;;5.70;99.90;;;;;;1895197;75;21047;-87
2021/12/06 11:32:54;;;;;;;10.30;8.03;;;5.50;99.90;;;;;;1891429;75;21173;-86
2021/12/06 11:35:45;;;;;;;10.95;9.28;;;5.60;99.90;;;;;;1884421;75;21065;-86
2021/12/06 11:39:02;;;;;;;9.35;8.30;;;5.80;99.90;;;;;;1904509;75;21108;-86
2021/12/06 11:41:53;;;;;;;;;;;5.90;99.90;;;;;;1903891;75;21111;-86
2021/12/06 11:44:46;;;;;;;8.58;7.42;;;5.90;99.90;;;;;;1896312;75;20147;-87
2021/12/06 11:47:40;;;;;;;8.70;7.35;;;5.90;99.90;;;;;;1897893;75;21177;-86
2021/12/06 11:50:32;;;;;;;9.10;7.78;;;5.90;99.90;;;;;;1896823;75;21094;-85
2021/12/06 11:53:26;;;;;;;8.80;7.25;;;6.00;99.90;;;;;;1917715;75;21095;-86
2021/12/06 11:56:20;;;;;;;8.88;7.70;;;6.20;99.90;;;;;;1903988;75;21042;-86
2021/12/06 11:59:23;;;;;;;;;;;;;;;;;;;;;
2021/12/06 12:02:08;;;;;;;10.23;7.97;;;6.30;99.90;;;;;;1911075;75;21063;-85
2021/12/06 12:05:13;;;;;;;8.75;7.72;;;6.40;99.90;;;;;;1896152;75;21102;-87
2021/12/06 12:08:13;;;;;;;9.03;7.65;;;6.60;99.90;;;;;;1884359;76;21106;-87
2021/12/06 12:11:05;;;;;;;12.53;9.18;;;6.60;99.90;;;;;;1900214;75;21039;-86
2021/12/06 12:13:58;;;;;;;9.00;7.65;;;6.70;99.90;;;;;;1894730;75;21107;-86
2021/12/06 12:16:49;;;;;;;8.88;7.97;;;6.70;99.90;;;;;;1911111;75;21056;-86
2021/12/06 12:19:42;;;;;;;7.62;6.78;;;6.80;99.90;;;;;;1906529;75;21054;-86
2021/12/06 12:22:34;;;;;;;7.75;6.95;;;6.80;99.90;;;;;;1884503;76;21058;-86
2021/12/06 12:25:31;;;;;;;10.03;7.85;;;6.70;99.90;;;;;;1897028;75;21059;-86
2021/12/06 12:32:31;;;;;;;8.53;6.60;;;6.50;99.90;;;;;;1904359;75;21105;-85
2021/12/06 12:35:24;;;;;;;9.70;7.22;;;6.40;99.90;;;;;;1900019;75;21098;-85
2021/12/06 12:38:28;;;;;;;7.37;6.58;;;6.40;99.90;;;;;;1894827;75;21098;-85
2021/12/06 12:41:28;;;;;;;8.23;6.40;;;6.60;99.90;;;;;;1915941;75;21098;-85
2021/12/06 12:44:23;;;;;;;7.65;6.40;;;6.70;99.90;;;;;;1911421;75;21051;-86
2021/12/06 12:47:17;;;;;;;6.90;6.20;;;6.80;99.90;;;;;;1905707;75;21131;-86
2021/12/06 12:50:14;;;;;;;6.85;5.80;;;6.90;99.90;;;;;;1901080;75;21051;-86
2021/12/06 12:53:10;;;;;;;6.75;5.90;;;6.90;99.90;;;;;;1896897;75;21164;-87
2021/12/06 12:56:03;;;;;;;6.80;5.92;;;6.80;99.90;;;;;;1885701;75;21105;-86
2021/12/06 12:58:54;;;;;;;6.20;5.60;;;6.80;99.90;;;;;;1883741;75;21060;-86
2021/12/06 13:01:47;;;;;;;8.50;6.60;;;6.80;99.90;;;;;;1884088;76;21120;-85
2021/12/06 13:05:31;;;;;;;9.55;7.12;;;6.80;99.90;;;;;;1899646;75;21193;-85
2021/12/06 13:11:04;;;;;;;7.15;5.35;;;6.80;99.90;;;;;;1949560;72;22251;-86
2021/12/06 13:13:57;;;;;;;5.42;4.80;;;6.70;99.90;;;;;;1903193;75;21103;-86
2021/12/06 13:16:58;;;;;;;6.67;5.37;;;6.60;99.90;;;;;;1879053;75;21083;-86
2021/12/06 13:19:50;;;;;;;113.12;62.90;;;6.70;99.90;;;;;;1881566;75;21183;-86
2021/12/06 13:23:04;;;;;;;7.22;5.50;;;6.80;99.90;;;;;;1858553;77;21113;-86
2021/12/06 13:26:08;;;;;;;5.60;4.78;;;6.80;99.90;;;;;;1892205;75;21207;-86
2021/12/06 13:29:08;;;;;;;5.62;5.03;;;6.80;99.90;;;;;;1872983;76;21530;-85
2021/12/06 13:32:03;;;;;;;7.35;5.40;;;6.90;99.90;;;;;;1884558;75;21174;-86
2021/12/06 13:34:57;;;;;;;6.83;5.40;;;6.90;99.90;;;;;;1883276;75;21080;-86
2021/12/06 13:38:12;;;;;;;4.97;4.47;;;6.70;99.90;;;;;;1883480;75;21546;-86
2021/12/06 13:41:15;;;;;;;8.48;5.17;;;6.70;99.90;;;;;;1878602;75;21088;-86
2021/12/06 13:44:10;;;;;;;7.53;5.35;;;6.80;99.90;;;;;;1873094;76;21147;-85
2021/12/06 13:47:05;;;;;;;7.00;5.72;;;6.90;99.90;;;;;;1873067;76;21063;-86
2021/12/06 13:50:01;;;;;;;6.83;5.40;;;6.80;99.90;;;;;;1887502;75;21102;-85
2021/12/06 13:52:53;;;;;;;7.03;5.67;;;6.80;99.90;;;;;;1883874;75;21105;-85
2021/12/06 13:55:44;;;;;;;5.75;5.10;;;6.70;99.90;;;;;;1883206;75;21168;-87
2021/12/06 13:58:36;;;;;;;6.55;5.62;;;6.70;99.90;;;;;;1883655;75;21059;-87
2021/12/06 14:01:47;;;;;;;5.65;5.15;;;6.60;99.90;;;;;;1892936;75;21103;-86
2021/12/06 14:04:59;;;;;;;6.22;5.50;;;6.60;99.90;;;;;;1867185;75;21095;-87
2021/12/06 14:07:51;;;;;;;5.50;4.90;;;6.50;99.90;;;;;;1887013;75;21161;-86
2021/12/06 14:10:42;;;;;;;6.85;5.95;;;6.60;99.90;;;;;;1882928;75;21144;-86
2021/12/06 14:13:34;;;;;;;8.30;6.83;;;6.50;99.90;;;;;;1877640;75;21110;-85
2021/12/06 14:16:29;;;;;;;5.33;4.75;;;6.50;99.90;;;;;;1871043;76;21114;-88
2021/12/06 14:19:19;;;;;;;5.22;4.37;;;6.40;99.90;;;;;;1871656;76;21047;-85
2021/12/06 14:24:53;;;;;;;5.80;5.15;;;6.40;99.90;;;;;;1969473;72;22342;-87
2021/12/06 14:27:47;;;;;;;5.50;4.65;;;6.50;99.90;;;;;;1918091;73;21054;-86
2021/12/06 14:30:38;;;;;;;7.05;5.33;;;6.50;99.90;;;;;;1932942;73;21088;-85
2021/12/06 14:33:32;;;;;;;6.28;5.37;;;6.60;99.90;;;;;;1917387;75;21105;-86
2021/12/06 14:36:44;;;;;;;6.20;5.17;;;6.50;99.90;;;;;;1917572;75;21160;-85
2021/12/06 14:39:41;;;;;;;6.78;5.65;;;6.50;99.90;;;;;;1917205;75;21106;-86
2021/12/06 14:42:32;;;;;;;6.78;5.80;;;6.60;99.90;;;;;;1917521;73;21055;-87
2021/12/06 14:45:28;;;;;;;6.85;5.95;;;6.60;99.90;;;;;;1917781;75;21593;-87
2021/12/06 14:48:31;;;;;;;6.60;5.40;;;6.60;99.90;;;;;;1917219;75;21109;-86
2021/12/06 14:51:30;;;;;;;7.20;5.47;;;6.60;99.90;;;;;;1924682;74;21114;-86
2021/12/06 14:54:26;;;;;;;5.45;4.40;;;6.50;99.90;;;;;;1922949;74;21189;-85
2021/12/06 14:57:17;;;;;;;4.10;3.20;;;6.50;99.90;;;;;;1923170;74;21109;-85
2021/12/06 15:00:13;;;;;;;5.30;3.65;;;6.30;99.90;;;;;;1923262;74;21111;-87
2021/12/06 15:05:50;;;;;;;4.75;3.60;;;5.90;99.90;;;;;;1975969;72;22135;-86
2021/12/06 15:08:43;;;;;;;4.15;3.50;;;5.70;99.90;;;;;;1893705;73;21109;-86
2021/12/06 15:11:39;;;;;;;4.65;3.60;;;5.50;99.90;;;;;;1850620;76;21118;-87
2021/12/06 15:14:31;;;;;;;3.52;3.12;;;5.40;99.90;;;;;;1897422;75;21129;-86
2021/12/06 15:17:45;;;;;;;3.77;3.10;;;5.40;99.90;;;;;;1902705;75;21103;-86
2021/12/06 15:20:40;;;;;;;3.67;3.22;;;5.30;99.90;;;;;;1898557;75;21106;-86
2021/12/06 15:26:19;;;;;;;5.40;4.25;;;5.30;99.90;;;;;;1955806;72;22183;-86
2021/12/06 15:29:22;;;;;;;4.60;3.27;;;5.40;99.90;;;;;;1903731;75;21087;-86
2021/12/06 15:32:22;;;;;;;5.58;3.92;;;5.50;99.90;;;;;;1899293;75;21124;-86
2021/12/06 15:35:14;;;;;;;5.25;4.00;;;5.40;99.90;;;;;;1884742;75;21056;-86
2021/12/06 15:38:27;;;;;;;10.63;4.33;;;5.40;99.90;;;;;;1884457;75;21104;-87
2021/12/06 15:41:26;;;;;;;5.77;4.60;;;5.30;99.90;;;;;;1884127;75;21106;-85
2021/12/06 15:44:23;;;;;;;6.83;5.30;;;5.30;99.90;;;;;;1906671;75;21047;-85
2021/12/06 15:47:18;;;;;;;6.05;5.08;;;5.30;99.90;;;;;;1906700;75;21091;-85
2021/12/06 15:50:13;;;;;;;6.67;5.85;;;5.20;99.90;;;;;;1900179;75;21659;-87
2021/12/06 15:53:05;;;;;;;6.20;5.28;;;5.20;99.90;;;;;;1897394;75;21046;-87
2021/12/06 15:55:59;;;;;;;6.67;5.03;;;5.20;99.90;;;;;;1895592;75;21523;-86
2021/12/06 15:58:53;;;;;;;6.25;4.75;;;5.30;99.90;;;;;;1891657;75;21120;-86
2021/12/06 16:01:46;;;;;;;6.40;4.72;;;5.30;99.90;;;;;;1904929;75;21458;-86
2021/12/06 16:04:42;;;;;;;5.70;4.75;;;5.20;99.90;;;;;;1900204;75;21164;-86
2021/12/06 16:07:36;;;;;;;6.97;5.25;;;5.20;99.90;;;;;;1906166;75;21051;-86
2021/12/06 16:10:30;;;;;;;9.28;5.80;;;5.10;99.90;;;;;;1913178;75;21112;-86
2021/12/06 16:13:24;;;;;;;8.20;6.67;;;5.10;99.90;;;;;;1895514;75;21080;-86
2021/12/06 16:16:43;;;;;;;8.25;7.10;;;5.00;99.90;;;;;;1895401;75;21091;-86
2021/12/06 16:19:55;;;;;;;7.28;6.03;;;4.90;99.90;;;;;;1894942;75;21142;-86
2021/12/06 16:22:50;;;;;;;7.67;6.65;;;4.80;99.90;;;;;;1896426;75;21048;-86
2021/12/06 16:25:48;;;;;;;7.10;5.92;;;4.80;99.90;;;;;;1895902;74;21111;-86
2021/12/06 16:28:50;;;;;;;8.03;6.17;;;4.80;99.90;;;;;;1885640;75;21110;-86
2021/12/06 16:31:44;;;;;;;7.20;5.70;;;4.70;99.90;;;;;;1883111;75;21059;-85
2021/12/06 16:34:40;;;;;;;8.20;6.25;;;4.80;99.90;;;;;;1889845;75;21066;-86
2021/12/06 16:37:31;;;;;;;6.37;5.42;;;4.70;99.90;;;;;;1905889;75;21047;-86
2021/12/06 16:40:27;;;;;;;7.95;5.53;;;4.80;99.90;;;;;;1884011;75;21091;-86
2021/12/06 16:43:22;;;;;;;6.05;4.80;;;4.90;99.90;;;;;;1884194;75;21190;-86
2021/12/06 16:46:16;;;;;;;5.70;4.85;;;4.90;99.90;;;;;;1893464;75;21059;-86
2021/12/06 16:49:07;;;;;;;7.08;4.75;;;4.70;99.90;;;;;;1894941;75;21169;-86
2021/12/06 16:52:17;;;;;;;5.58;4.62;;;4.70;99.90;;;;;;1895613;75;21117;-86
2021/12/06 16:55:16;;;;;;;5.95;5.08;;;4.50;99.90;;;;;;1903874;75;21474;-86
2021/12/06 16:58:09;;;;;;;6.20;4.70;;;4.60;99.90;;;;;;1888201;75;21125;-86
2021/12/06 17:01:05;;;;;;;6.62;4.85;;;4.60;99.90;;;;;;1895338;75;21118;-86
2021/12/06 17:03:57;;;;;;;6.47;5.00;;;4.50;99.90;;;;;;1882706;75;21095;-85
2021/12/06 17:06:49;;;;;;;10.58;7.70;;;4.40;99.90;;;;;;1882818;75;21160;-85
2021/12/06 17:09:40;;;;;;;10.38;7.30;;;4.30;99.90;;;;;;1885441;75;21131;-85
2021/12/06 17:12:38;;;;;;;8.10;6.60;;;4.20;99.90;;;;;;1872017;77;21067;-85
2021/12/06 17:15:32;;;;;;;8.15;6.37;;;4.20;99.90;;;;;;1903697;75;21148;-85
2021/12/06 17:18:25;;;;;;;6.90;5.90;;;4.20;99.90;;;;;;1882370;75;21405;-85
2021/12/06 17:21:20;;;;;;;8.85;5.37;;;4.30;99.90;;;;;;1882786;75;21165;-85
2021/12/06 17:24:12;;;;;;;10.68;7.08;;;4.30;99.90;;;;;;1885558;75;21068;-86
2021/12/06 17:27:04;;;;;;;7.67;6.58;;;4.40;99.90;;;;;;1883559;74;21234;-85
2021/12/06 17:29:57;;;;;;;9.50;6.90;;;4.40;99.90;;;;;;1893548;74;21101;-85
2021/12/06 17:33:01;;;;;;;7.87;6.70;;;4.40;99.90;;;;;;1896913;74;21150;-86
2021/12/06 17:39:49;;;;;;;10.33;7.60;;;4.30;99.90;;;;;;1910758;74;21114;-85
2021/12/06 17:42:44;;;;;;;8.80;6.92;;;4.30;99.90;;;;;;1904416;74;21047;-86
2021/12/06 17:45:35;;;;;;;9.20;6.83;;;4.20;99.90;;;;;;1904714;74;21571;-86